Weather at Ain Arnat Airport

Public forecast

Using degrees Celsius for public forecast. Weather courtesy of forecast.io.

Current aviation weather report (METAR) for Ain Arnat Airport

Retrieved 2020/11/28 04:00 UTC (45 minutes ago):

DAAS 280400Z 20004KT 9999 BKN003 SCT100 06/05 Q1002

Aviation forecast (TAF) for Ain Arnat Airport

Retrieved 2020-11-28 00:33 UTC (4 hours ago):

TAF TAF DAAS 272300Z 2800/2824 10012KT 9999 SCT020 BKN100 PROB30 TEMPO 2800/2810 FEW020CB TEMPO 2810/2824 20015G30KT 4000 -TSRA FEW020CB